Wetterdaten: Woche 18.08.14 - 24.08.14 (KW34)
Datum Zeit Temp. Aussen +5cm Feuchte Auss Luftdruck Regen Sonnenschein Regendauer UV Solar Windben
18.08.2014 00:00 13,3 C 12,0 C 97 % 1006,3 hPa 0,0 l/m 0,00 h 0,35 h 0,0 UV-I 0 W/m 32,0 km/h (5 Bft)
18.08.2014 01:00 13,4 C 12,2 C 97 % 1006,0 hPa 0,0 l/m 0,00 h 0,03 h 0,0 UV-I 0 W/m 26,4 km/h (4 Bft)
18.08.2014 02:00 13,4 C 12,2 C 97 % 1005,7 hPa 0,0 l/m 0,00 h 0,00 h 0,0 UV-I 0 W/m 26,9 km/h (4 Bft)
18.08.2014 03:00 13,7 C 12,2 C 96 % 1005,5 hPa 0,0 l/m 0,00 h 0,00 h 0,0 UV-I 0 W/m 37,7 km/h (5 Bft)
18.08.2014 04:00 13,6 C 12,2 C 96 % 1005,3 hPa 0,0 l/m 0,00 h 0,00 h 0,0 UV-I 0 W/m 37,7 km/h (5 Bft)
18.08.2014 05:00 13,5 C 12,2 C 96 % 1005,1 hPa 0,0 l/m 0,00 h 0,00 h 0,0 UV-I 0 W/m 40,2 km/h (6 Bft)
18.08.2014 06:00 13,3 C 12,1 C 95 % 1005,1 hPa 0,0 l/m 0,00 h 0,00 h 0,0 UV-I 17 W/m 33,4 km/h (5 Bft)
18.08.2014 07:00 13,2 C 12,0 C 95 % 1005,2 hPa 0,0 l/m 0,83 h 0,00 h 0,0 UV-I 104 W/m 35,7 km/h (5 Bft)
18.08.2014 08:00 13,7 C 12,4 C 93 % 1005,1 hPa 0,0 l/m 1,00 h 0,00 h 0,0 UV-I 287 W/m 45,1 km/h (6 Bft)
18.08.2014 09:00 15,0 C 14,2 C 86 % 1005,3 hPa 0,0 l/m 0,97 h 0,00 h 0,7 UV-I 457 W/m 50,7 km/h (7 Bft)
18.08.2014 10:00 16,3 C 15,6 C 76 % 1005,5 hPa 0,0 l/m 1,00 h 0,00 h 1,8 UV-I 602 W/m 62,1 km/h (8 Bft)
18.08.2014 11:00 17,1 C 16,1 C 70 % 1005,8 hPa 0,0 l/m 0,73 h 0,00 h 2,2 UV-I 567 W/m 61,2 km/h (7 Bft)
18.08.2014 12:00 17,1 C 16,3 C 67 % 1006,0 hPa 0,0 l/m 0,10 h 0,00 h 1,7 UV-I 294 W/m 62,3 km/h (8 Bft)
18.08.2014 13:00 17,9 C 17,4 C 66 % 1006,2 hPa 0,0 l/m 0,30 h 0,00 h 2,1 UV-I 466 W/m 56,0 km/h (7 Bft)
18.08.2014 14:00 16,2 C 14,6 C 77 % 1006,7 hPa 0,0 l/m 0,00 h 0,50 h 1,1 UV-I 173 W/m 39,4 km/h (6 Bft)
18.08.2014 15:00 17,5 C 16,5 C 74 % 1007,0 hPa 0,4 l/m 0,47 h 0,10 h 2,3 UV-I 417 W/m 49,8 km/h (6 Bft)
18.08.2014 16:00 16,6 C 14,5 C 81 % 1007,6 hPa 0,2 l/m 0,30 h 0,07 h 1,2 UV-I 310 W/m 47,3 km/h (6 Bft)
18.08.2014 17:00 14,8 C 12,7 C 86 % 1008,4 hPa 0,6 l/m 0,00 h 0,43 h 0,0 UV-I 82 W/m 33,4 km/h (5 Bft)
18.08.2014 18:00 13,3 C 11,8 C 92 % 1009,0 hPa 0,4 l/m 0,00 h 0,47 h 0,0 UV-I 47 W/m 27,5 km/h (4 Bft)
18.08.2014 19:00 13,3 C 12,2 C 94 % 1009,1 hPa 0,0 l/m 0,00 h 0,10 h 0,0 UV-I 45 W/m 24,8 km/h (4 Bft)
18.08.2014 20:00 13,2 C 11,8 C 94 % 1009,4 hPa 0,0 l/m 0,00 h 0,13 h 0,0 UV-I 10 W/m 17,5 km/h (3 Bft)
18.08.2014 21:00 13,1 C 11,7 C 95 % 1009,9 hPa 0,0 l/m 0,00 h 0,03 h 0,0 UV-I 0 W/m 16,3 km/h (3 Bft)
18.08.2014 22:00 12,3 C 10,8 C 95 % 1010,1 hPa 0,0 l/m 0,00 h 0,00 h 0,0 UV-I 0 W/m 8,9 km/h (2 Bft)
18.08.2014 23:00 11,6 C 10,4 C 96 % 1010,2 hPa 0,0 l/m 0,00 h 0,00 h 0,0 UV-I 0 W/m 9,2 km/h (2 Bft)
19.08.2014 00:00 11,6 C 10,6 C 97 % 1010,3 hPa 0,0 l/m 0,00 h 0,00 h 0,0 UV-I 0 W/m 13,0 km/h (3 Bft)
19.08.2014 01:00 11,7 C 10,6 C 96 % 1010,1 hPa 0,0 l/m 0,00 h 0,00 h 0,0 UV-I 0 W/m 13,7 km/h (3 Bft)
19.08.2014 02:00 11,6 C 10,6 C 96 % 1009,7 hPa 0,0 l/m 0,00 h 0,00 h 0,0 UV-I 0 W/m 12,8 km/h (3 Bft)
19.08.2014 03:00 11,7 C 10,6 C 96 % 1009,5 hPa 0,0 l/m 0,00 h 0,00 h 0,0 UV-I 0 W/m 5,1 km/h (1 Bft)
19.08.2014 04:00 11,7 C 10,4 C 96 % 1008,9 hPa 0,2 l/m 0,00 h 0,30 h 0,0 UV-I 0 W/m 16,1 km/h (3 Bft)
19.08.2014 05:00 11,3 C 10,0 C 96 % 1008,6 hPa 0,0 l/m 0,00 h 0,00 h 0,0 UV-I 0 W/m 11,2 km/h (2 Bft)
19.08.2014 06:00 11,5 C 10,6 C 96 % 1008,6 hPa 0,0 l/m 0,00 h 0,00 h 0,0 UV-I 10 W/m 14,2 km/h (3 Bft)
19.08.2014 07:00 11,9 C 10,8 C 96 % 1008,8 hPa 1,4 l/m 0,00 h 0,63 h 0,0 UV-I 23 W/m 12,9 km/h (3 Bft)
19.08.2014 08:00 12,4 C 11,3 C 96 % 1008,9 hPa 0,6 l/m 0,00 h 0,17 h 0,0 UV-I 52 W/m 24,7 km/h (4 Bft)
19.08.2014 09:00 12,9 C 12,1 C 97 % 1008,9 hPa 0,0 l/m 0,00 h 0,07 h 0,0 UV-I 99 W/m 33,3 km/h (5 Bft)
19.08.2014 10:00 13,7 C 12,9 C 95 % 1009,1 hPa 0,0 l/m 0,00 h 0,00 h 0,4 UV-I 143 W/m 27,4 km/h (4 Bft)
19.08.2014 11:00 14,1 C 13,0 C 93 % 1009,3 hPa 0,0 l/m 0,00 h 0,00 h 0,5 UV-I 137 W/m 35,4 km/h (5 Bft)
19.08.2014 12:00 14,7 C 13,8 C 90 % 1009,7 hPa 0,0 l/m 0,00 h 0,10 h 1,1 UV-I 216 W/m 36,1 km/h (5 Bft)
19.08.2014 13:00 15,5 C 14,9 C 82 % 1009,7 hPa 0,0 l/m 0,40 h 0,00 h 1,8 UV-I 336 W/m 46,7 km/h (6 Bft)
19.08.2014 14:00 16,1 C 15,5 C 76 % 1009,8 hPa 0,0 l/m 0,20 h 0,00 h 1,2 UV-I 282 W/m 44,8 km/h (6 Bft)
19.08.2014 15:00 15,6 C 14,5 C 72 % 1010,4 hPa 0,0 l/m 0,27 h 0,20 h 1,3 UV-I 262 W/m 52,6 km/h (7 Bft)
19.08.2014 16:00 16,0 C 15,1 C 75 % 1010,6 hPa 0,0 l/m 0,67 h 0,10 h 1,4 UV-I 435 W/m 48,3 km/h (6 Bft)
19.08.2014 17:00 15,1 C 13,5 C 74 % 1011,1 hPa 0,2 l/m 0,27 h 0,20 h 0,5 UV-I 208 W/m 46,6 km/h (6 Bft)
19.08.2014 18:00 14,9 C 12,8 C 76 % 1011,6 hPa 0,0 l/m 0,40 h 0,00 h 0,0 UV-I 162 W/m 37,1 km/h (5 Bft)
19.08.2014 19:00 14,5 C 12,9 C 77 % 1012,2 hPa 0,0 l/m 0,13 h 0,00 h 0,0 UV-I 67 W/m 29,8 km/h (5 Bft)
19.08.2014 20:00 13,0 C 11,5 C 80 % 1013,0 hPa 0,0 l/m 0,00 h 0,00 h 0,0 UV-I 19 W/m 23,0 km/h (4 Bft)
19.08.2014 21:00 11,3 C 9,7 C 83 % 1013,7 hPa 0,0 l/m 0,00 h 0,00 h 0,0 UV-I 0 W/m 9,7 km/h (2 Bft)
19.08.2014 22:00 10,1 C 8,7 C 89 % 1014,0 hPa 0,0 l/m 0,00 h 0,00 h 0,0 UV-I 0 W/m 6,5 km/h (2 Bft)
19.08.2014 23:00 10,1 C 8,9 C 88 % 1014,3 hPa 0,0 l/m 0,00 h 0,00 h 0,0 UV-I 0 W/m 16,9 km/h (3 Bft)
20.08.2014 00:00 9,9 C 8,9 C 88 % 1014,5 hPa 0,0 l/m 0,00 h 0,00 h 0,0 UV-I 0 W/m 16,8 km/h (3 Bft)
20.08.2014 01:00 9,4 C 8,3 C 89 % 1014,6 hPa 0,0 l/m 0,00 h 0,00 h 0,0 UV-I 0 W/m 14,4 km/h (3 Bft)
20.08.2014 02:00 8,9 C 8,0 C 92 % 1014,8 hPa 0,0 l/m 0,00 h 0,00 h 0,0 UV-I 0 W/m 17,5 km/h (3 Bft)
20.08.2014 03:00 8,9 C 8,2 C 93 % 1014,8 hPa 0,0 l/m 0,00 h 0,00 h 0,0 UV-I 0 W/m 17,1 km/h (3 Bft)
20.08.2014 04:00 8,7 C 7,8 C 93 % 1015,0 hPa 0,0 l/m 0,00 h 0,00 h 0,0 UV-I 0 W/m 13,1 km/h (3 Bft)
20.08.2014 05:00 8,5 C 7,8 C 94 % 1015,1 hPa 0,0 l/m 0,00 h 0,00 h 0,0 UV-I 0 W/m 18,4 km/h (3 Bft)
20.08.2014 06:00 8,3 C 7,8 C 94 % 1015,3 hPa 0,0 l/m 0,10 h 0,00 h 0,0 UV-I 16 W/m 18,4 km/h (3 Bft)
20.08.2014 07:00 8,6 C 8,1 C 94 % 1015,4 hPa 0,0 l/m 0,97 h 0,00 h 0,0 UV-I 123 W/m 23,5 km/h (4 Bft)
20.08.2014 08:00 10,2 C 9,4 C 92 % 1015,7 hPa 0,0 l/m 1,00 h 0,00 h 0,0 UV-I 279 W/m 16,4 km/h (3 Bft)
20.08.2014 09:00 12,7 C 11,9 C 85 % 1016,0 hPa 0,0 l/m 1,00 h 0,00 h 0,8 UV-I 428 W/m 21,1 km/h (4 Bft)
20.08.2014 10:00 15,4 C 14,6 C 77 % 1016,2 hPa 0,0 l/m 1,00 h 0,00 h 1,7 UV-I 558 W/m 20,7 km/h (4 Bft)
20.08.2014 11:00 17,0 C 16,0 C 71 % 1016,1 hPa 0,0 l/m 0,93 h 0,00 h 2,6 UV-I 632 W/m 23,9 km/h (4 Bft)
20.08.2014 12:00 17,0 C 16,3 C 67 % 1015,9 hPa 0,0 l/m 0,30 h 0,00 h 2,1 UV-I 336 W/m 20,6 km/h (4 Bft)
20.08.2014 13:00 17,6 C 16,8 C 65 % 1015,7 hPa 0,0 l/m 0,60 h 0,00 h 2,9 UV-I 521 W/m 22,2 km/h (4 Bft)
20.08.2014 14:00 17,8 C 16,9 C 62 % 1015,5 hPa 0,0 l/m 0,37 h 0,00 h 2,1 UV-I 406 W/m 20,5 km/h (4 Bft)
20.08.2014 15:00 19,6 C 18,7 C 58 % 1015,3 hPa 0,0 l/m 1,00 h 0,00 h 2,6 UV-I 649 W/m 25,4 km/h (4 Bft)
20.08.2014 16:00 19,8 C 19,5 C 57 % 1014,9 hPa 0,0 l/m 0,93 h 0,00 h 1,6 UV-I 526 W/m 27,2 km/h (4 Bft)
20.08.2014 17:00 18,1 C 16,9 C 63 % 1014,7 hPa 0,0 l/m 0,13 h 0,00 h 0,5 UV-I 174 W/m 20,8 km/h (4 Bft)
20.08.2014 18:00 13,4 C 11,6 C 83 % 1015,6 hPa 6,4 l/m 0,00 h 0,70 h 0,0 UV-I 15 W/m 32,2 km/h (5 Bft)
20.08.2014 19:00 11,5 C 10,4 C 95 % 1015,7 hPa 0,2 l/m 0,00 h 0,27 h 0,0 UV-I 39 W/m 3,5 km/h (1 Bft)
20.08.2014 20:00 11,3 C 10,3 C 96 % 1015,8 hPa 0,0 l/m 0,00 h 0,00 h 0,0 UV-I 17 W/m 2,5 km/h (1 Bft)
20.08.2014 21:00 11,2 C 10,2 C 97 % 1016,2 hPa 0,0 l/m 0,00 h 0,03 h 0,0 UV-I 0 W/m 7,7 km/h (2 Bft)
20.08.2014 22:00 10,9 C 9,7 C 98 % 1016,3 hPa 0,0 l/m 0,00 h 0,00 h 0,0 UV-I 0 W/m 3,9 km/h (1 Bft)
20.08.2014 23:00 10,5 C 9,1 C 98 % 1016,3 hPa 0,0 l/m 0,00 h 0,00 h 0,0 UV-I 0 W/m 0,0 km/h (0 Bft)
21.08.2014 00:00 10,4 C 9,3 C 98 % 1016,1 hPa 0,0 l/m 0,00 h 0,00 h 0,0 UV-I 0 W/m 2,5 km/h (1 Bft)
21.08.2014 01:00 9,6 C 8,3 C 98 % 1016,3 hPa 0,2 l/m 0,00 h 0,00 h 0,0 UV-I 0 W/m 0,1 km/h (0 Bft)
21.08.2014 02:00 9,1 C 7,8 C 99 % 1016,4 hPa 0,0 l/m 0,00 h 0,00 h 0,0 UV-I 0 W/m 0,0 km/h (0 Bft)
21.08.2014 03:00 8,8 C 7,7 C 99 % 1016,3 hPa 0,0 l/m 0,00 h 0,00 h 0,0 UV-I 0 W/m 5,9 km/h (2 Bft)
21.08.2014 04:00 8,8 C 8,0 C 99 % 1016,3 hPa 0,0 l/m 0,00 h 0,00 h 0,0 UV-I 0 W/m 7,5 km/h (2 Bft)
21.08.2014 05:00 8,6 C 7,8 C 99 % 1016,1 hPa 0,0 l/m 0,00 h 0,00 h 0,0 UV-I 0 W/m 12,2 km/h (2 Bft)
21.08.2014 06:00 8,6 C 7,8 C 99 % 1016,2 hPa 0,0 l/m 0,17 h 0,00 h 0,0 UV-I 17 W/m 12,3 km/h (3 Bft)
21.08.2014 07:00 8,9 C 8,1 C 99 % 1016,3 hPa 0,0 l/m 0,93 h 0,00 h 0,0 UV-I 92 W/m 14,3 km/h (3 Bft)
21.08.2014 08:00 10,1 C 9,3 C 98 % 1016,5 hPa 0,0 l/m 1,00 h 0,00 h 0,0 UV-I 235 W/m 16,0 km/h (3 Bft)
21.08.2014 09:00 12,1 C 11,3 C 95 % 1016,7 hPa 0,0 l/m 1,00 h 0,00 h 0,8 UV-I 402 W/m 15,1 km/h (3 Bft)
21.08.2014 10:00 14,2 C 13,3 C 86 % 1016,8 hPa 0,0 l/m 0,87 h 0,00 h 1,5 UV-I 481 W/m 20,8 km/h (4 Bft)
21.08.2014 11:00 16,2 C 15,3 C 78 % 1016,6 hPa 0,0 l/m 0,83 h 0,00 h 2,4 UV-I 605 W/m 25,5 km/h (4 Bft)
21.08.2014 12:00 17,0 C 16,1 C 71 % 1016,4 hPa 0,0 l/m 0,50 h 0,00 h 2,4 UV-I 477 W/m 33,1 km/h (5 Bft)
21.08.2014 13:00 18,1 C 17,4 C 67 % 1016,1 hPa 0,0 l/m 0,60 h 0,00 h 2,9 UV-I 554 W/m 30,2 km/h (5 Bft)
21.08.2014 14:00 18,1 C 16,9 C 64 % 1015,9 hPa 0,0 l/m 0,30 h 0,00 h 1,5 UV-I 326 W/m 29,0 km/h (5 Bft)
21.08.2014 15:00 17,6 C 16,6 C 66 % 1015,6 hPa 0,0 l/m 0,10 h 0,00 h 1,1 UV-I 243 W/m 25,8 km/h (4 Bft)
21.08.2014 16:00 18,7 C 18,3 C 63 % 1015,2 hPa 0,0 l/m 0,83 h 0,00 h 1,5 UV-I 446 W/m 23,2 km/h (4 Bft)
21.08.2014 17:00 17,5 C 15,8 C 66 % 1014,9 hPa 0,0 l/m 0,10 h 0,00 h 0,5 UV-I 96 W/m 12,6 km/h (3 Bft)
21.08.2014 18:00 18,2 C 16,1 C 64 % 1014,5 hPa 0,0 l/m 0,80 h 0,00 h 0,0 UV-I 228 W/m 13,0 km/h (3 Bft)
21.08.2014 19:00 16,8 C 14,7 C 70 % 1014,2 hPa 0,0 l/m 0,00 h 0,00 h 0,0 UV-I 30 W/m 2,1 km/h (1 Bft)
21.08.2014 20:00 16,1 C 14,1 C 72 % 1014,2 hPa 0,0 l/m 0,00 h 0,00 h 0,0 UV-I 12 W/m 14,3 km/h (3 Bft)
21.08.2014 21:00 15,1 C 13,4 C 71 % 1014,4 hPa 0,0 l/m 0,00 h 0,00 h 0,0 UV-I 0 W/m 21,1 km/h (4 Bft)
21.08.2014 22:00 14,8 C 13,2 C 74 % 1014,5 hPa 0,0 l/m 0,00 h 0,00 h 0,0 UV-I 0 W/m 21,1 km/h (4 Bft)
21.08.2014 23:00 14,1 C 12,4 C 78 % 1014,4 hPa 0,0 l/m 0,00 h 0,00 h 0,0 UV-I 0 W/m 15,6 km/h (3 Bft)
22.08.2014 00:00 13,3 C 11,8 C 81 % 1014,3 hPa 0,0 l/m 0,00 h 0,00 h 0,0 UV-I 0 W/m 17,5 km/h (3 Bft)
22.08.2014 01:00 12,7 C 11,3 C 84 % 1014,0 hPa 0,0 l/m 0,00 h 0,00 h 0,0 UV-I 0 W/m 15,8 km/h (3 Bft)
22.08.2014 02:00 12,1 C 10,8 C 87 % 1013,8 hPa 0,0 l/m 0,00 h 0,00 h 0,0 UV-I 0 W/m 14,1 km/h (3 Bft)
22.08.2014 03:00 12,3 C 11,0 C 86 % 1013,5 hPa 0,0 l/m 0,00 h 0,00 h 0,0 UV-I 0 W/m 13,4 km/h (3 Bft)
22.08.2014 04:00 12,5 C 11,2 C 84 % 1013,1 hPa 0,0 l/m 0,00 h 0,00 h 0,0 UV-I 0 W/m 18,1 km/h (3 Bft)
22.08.2014 05:00 11,8 C 10,4 C 87 % 1012,8 hPa 0,0 l/m 0,00 h 0,00 h 0,0 UV-I 0 W/m 15,1 km/h (3 Bft)
22.08.2014 06:00 11,3 C 10,0 C 89 % 1012,4 hPa 0,0 l/m 0,07 h 0,00 h 0,0 UV-I 16 W/m 16,7 km/h (3 Bft)
22.08.2014 07:00 12,0 C 11,1 C 87 % 1012,1 hPa 0,0 l/m 0,27 h 0,00 h 0,0 UV-I 56 W/m 24,8 km/h (4 Bft)
22.08.2014 08:00 13,3 C 12,3 C 84 % 1012,0 hPa 0,0 l/m 0,07 h 0,00 h 0,0 UV-I 68 W/m 9,7 km/h (2 Bft)
22.08.2014 09:00 14,0 C 13,3 C 83 % 1011,8 hPa 0,0 l/m 0,17 h 0,00 h 0,2 UV-I 148 W/m 11,3 km/h (2 Bft)
22.08.2014 10:00 15,5 C 14,6 C 76 % 1011,7 hPa 0,0 l/m 0,20 h 0,00 h 1,0 UV-I 209 W/m 25,4 km/h (4 Bft)
22.08.2014 11:00 17,5 C 16,8 C 69 % 1011,5 hPa 0,0 l/m 1,00 h 0,00 h 2,0 UV-I 471 W/m 42,3 km/h (6 Bft)
22.08.2014 12:00 18,4 C 17,8 C 67 % 1011,3 hPa 0,0 l/m 0,72 h 0,00 h 2,4 UV-I 467 W/m 51,3 km/h (7 Bft)
22.08.2014 13:00 18,5 C 17,9 C 65 % 1011,2 hPa 0,0 l/m 0,47 h 0,00 h 2,0 UV-I 379 W/m 56,7 km/h (7 Bft)
22.08.2014 14:00 18,4 C 17,8 C 67 % 1011,0 hPa 0,0 l/m 0,13 h 0,00 h 1,5 UV-I 303 W/m 39,3 km/h (6 Bft)
22.08.2014 15:00 18,9 C 18,0 C 63 % 1010,6 hPa 0,0 l/m 0,27 h 0,00 h 1,4 UV-I 324 W/m 50,0 km/h (6 Bft)
22.08.2014 16:00 18,5 C 17,0 C 65 % 1010,6 hPa 0,0 l/m 0,00 h 0,47 h 0,5 UV-I 172 W/m 42,4 km/h (6 Bft)
22.08.2014 17:00 16,3 C 14,3 C 79 % 1010,8 hPa 0,0 l/m 0,00 h 0,53 h 0,0 UV-I 51 W/m 27,3 km/h (4 Bft)
22.08.2014 18:00 14,3 C 12,5 C 90 % 1011,2 hPa 1,0 l/m 0,00 h 0,88 h 0,0 UV-I 31 W/m 27,6 km/h (4 Bft)
22.08.2014 19:00 13,6 C 12,2 C 94 % 1011,3 hPa 0,2 l/m 0,00 h 0,43 h 0,0 UV-I 39 W/m 26,4 km/h (4 Bft)
22.08.2014 20:00 13,3 C 11,9 C 94 % 1011,4 hPa 0,0 l/m 0,07 h 0,00 h 0,0 UV-I 19 W/m 16,6 km/h (3 Bft)
22.08.2014 21:00 12,8 C 11,6 C 96 % 1011,6 hPa 0,2 l/m 0,00 h 0,33 h 0,0 UV-I 0 W/m 14,3 km/h (3 Bft)
22.08.2014 22:00 12,8 C 11,6 C 96 % 1011,9 hPa 0,0 l/m 0,00 h 0,10 h 0,0 UV-I 0 W/m 18,9 km/h (3 Bft)
22.08.2014 23:00 12,2 C 10,9 C 95 % 1012,2 hPa 0,0 l/m 0,00 h 0,00 h 0,0 UV-I 0 W/m 22,8 km/h (4 Bft)
23.08.2014 00:00 11,8 C 10,6 C 94 % 1012,2 hPa 0,0 l/m 0,00 h 0,00 h 0,0 UV-I 0 W/m 19,4 km/h (3 Bft)
23.08.2014 01:00 11,8 C 10,5 C 94 % 1012,1 hPa 0,0 l/m 0,00 h 0,00 h 0,0 UV-I 0 W/m 5,7 km/h (1 Bft)
23.08.2014 02:00 11,4 C 10,2 C 96 % 1012,1 hPa 0,0 l/m 0,00 h 0,00 h 0,0 UV-I 0 W/m 15,0 km/h (3 Bft)
23.08.2014 03:00 11,5 C 10,6 C 97 % 1012,0 hPa 0,0 l/m 0,00 h 0,00 h 0,0 UV-I 0 W/m 15,5 km/h (3 Bft)
23.08.2014 04:00 11,7 C 10,6 C 97 % 1011,9 hPa 0,0 l/m 0,00 h 0,00 h 0,0 UV-I 0 W/m 16,0 km/h (3 Bft)
23.08.2014 05:00 11,5 C 10,4 C 97 % 1011,8 hPa 0,0 l/m 0,00 h 0,00 h 0,0 UV-I 0 W/m 8,6 km/h (2 Bft)
23.08.2014 06:00 10,9 C 9,8 C 98 % 1012,0 hPa 0,0 l/m 0,00 h 0,00 h 0,0 UV-I 13 W/m 4,3 km/h (1 Bft)
23.08.2014 07:00 11,4 C 10,4 C 98 % 1012,0 hPa 0,0 l/m 0,43 h 0,00 h 0,0 UV-I 66 W/m 0,7 km/h (0 Bft)
23.08.2014 08:00 12,1 C 11,4 C 98 % 1012,6 hPa 0,2 l/m 0,37 h 0,00 h 0,0 UV-I 128 W/m 12,5 km/h (3 Bft)
23.08.2014 09:00 13,5 C 12,2 C 95 % 1012,7 hPa 0,0 l/m 0,67 h 0,00 h 0,3 UV-I 270 W/m 24,6 km/h (4 Bft)
23.08.2014 10:00 14,4 C 13,3 C 89 % 1012,8 hPa 0,0 l/m 0,37 h 0,00 h 0,9 UV-I 275 W/m 28,5 km/h (4 Bft)
23.08.2014 11:00 16,5 C 16,0 C 82 % 1012,9 hPa 0,0 l/m 0,80 h 0,00 h 2,2 UV-I 566 W/m 29,0 km/h (5 Bft)
23.08.2014 12:00 17,5 C 17,1 C 75 % 1012,8 hPa 0,0 l/m 0,80 h 0,00 h 2,9 UV-I 606 W/m 35,7 km/h (5 Bft)
23.08.2014 13:00 18,4 C 18,0 C 70 % 1012,7 hPa 0,0 l/m 0,63 h 0,00 h 2,7 UV-I 585 W/m 35,4 km/h (5 Bft)
23.08.2014 14:00 16,0 C 15,8 C 71 % 1013,2 hPa 0,0 l/m 0,50 h 0,03 h 1,9 UV-I 463 W/m 40,7 km/h (6 Bft)
23.08.2014 15:00 15,4 C 14,6 C 74 % 1013,3 hPa 0,0 l/m 0,07 h 0,20 h 0,7 UV-I 154 W/m 23,0 km/h (4 Bft)
23.08.2014 16:00 15,9 C 15,5 C 72 % 1013,3 hPa 0,0 l/m 0,00 h 0,00 h 0,7 UV-I 207 W/m 15,0 km/h (3 Bft)
23.08.2014 17:00 15,9 C 15,3 C 75 % 1013,5 hPa 0,0 l/m 0,13 h 0,00 h 0,0 UV-I 164 W/m 19,6 km/h (3 Bft)
23.08.2014 18:00 15,5 C 14,3 C 78 % 1013,3 hPa 0,0 l/m 0,45 h 0,00 h 0,0 UV-I 164 W/m 21,9 km/h (4 Bft)
23.08.2014 19:00 15,3 C 13,9 C 77 % 1013,5 hPa 0,0 l/m 0,37 h 0,00 h 0,0 UV-I 79 W/m 20,6 km/h (4 Bft)
23.08.2014 20:00 13,8 C 11,8 C 77 % 1014,1 hPa 0,0 l/m 0,10 h 0,00 h 0,0 UV-I 19 W/m 5,9 km/h (2 Bft)
23.08.2014 21:00 11,9 C 9,9 C 85 % 1014,8 hPa 0,0 l/m 0,00 h 0,00 h 0,0 UV-I 0 W/m 2,1 km/h (1 Bft)
23.08.2014 22:00 11,3 C 9,9 C 88 % 1015,3 hPa 0,0 l/m 0,00 h 0,00 h 0,0 UV-I 0 W/m 4,7 km/h (1 Bft)
23.08.2014 23:00 11,1 C 10,0 C 90 % 1015,6 hPa 0,0 l/m 0,00 h 0,00 h 0,0 UV-I 0 W/m 8,0 km/h (2 Bft)
24.08.2014 00:00 10,6 C 9,5 C 92 % 1015,7 hPa 0,0 l/m 0,00 h 0,00 h 0,0 UV-I 0 W/m 20,6 km/h (4 Bft)
24.08.2014 01:00 10,7 C 9,5 C 90 % 1015,7 hPa 0,0 l/m 0,00 h 0,23 h 0,0 UV-I 0 W/m 6,0 km/h (2 Bft)
24.08.2014 02:00 10,5 C 9,4 C 91 % 1015,9 hPa 0,0 l/m 0,00 h 0,00 h 0,0 UV-I 0 W/m 11,8 km/h (2 Bft)
24.08.2014 03:00 9,6 C 8,9 C 92 % 1016,3 hPa 0,0 l/m 0,00 h 0,00 h 0,0 UV-I 0 W/m 13,5 km/h (3 Bft)
24.08.2014 04:00 8,9 C 8,3 C 93 % 1016,4 hPa 0,0 l/m 0,00 h 0,00 h 0,0 UV-I 0 W/m 15,9 km/h (3 Bft)
24.08.2014 05:00 8,7 C 7,9 C 94 % 1016,6 hPa 0,0 l/m 0,00 h 0,00 h 0,0 UV-I 0 W/m 16,7 km/h (3 Bft)
24.08.2014 06:00 8,4 C 7,8 C 94 % 1016,9 hPa 0,0 l/m 0,00 h 0,00 h 0,0 UV-I 12 W/m 10,4 km/h (2 Bft)
24.08.2014 07:00 8,6 C 8,1 C 95 % 1017,4 hPa 0,0 l/m 0,93 h 0,00 h 0,0 UV-I 106 W/m 20,3 km/h (4 Bft)
24.08.2014 08:00 10,4 C 9,8 C 92 % 1017,7 hPa 0,0 l/m 0,40 h 0,00 h 0,0 UV-I 163 W/m 21,6 km/h (4 Bft)
24.08.2014 09:00 12,1 C 11,4 C 87 % 1018,1 hPa 0,0 l/m 1,00 h 0,00 h 0,8 UV-I 407 W/m 25,0 km/h (4 Bft)
24.08.2014 10:00 14,8 C 13,7 C 80 % 1018,4 hPa 0,0 l/m 1,00 h 0,00 h 1,6 UV-I 545 W/m 21,1 km/h (4 Bft)
24.08.2014 11:00 16,5 C 15,6 C 73 % 1018,5 hPa 0,0 l/m 0,97 h 0,00 h 2,5 UV-I 578 W/m 25,9 km/h (4 Bft)
24.08.2014 12:00 17,5 C 17,0 C 67 % 1018,5 hPa 0,0 l/m 0,57 h 0,00 h 2,5 UV-I 548 W/m 32,4 km/h (5 Bft)
24.08.2014 13:00 18,4 C 18,2 C 64 % 1018,2 hPa 0,0 l/m 0,83 h 0,00 h 2,9 UV-I 652 W/m 30,2 km/h (5 Bft)
24.08.2014 14:00 19,4 C 18,7 C 59 % 1017,8 hPa 0,0 l/m 1,00 h 0,00 h 3,2 UV-I 729 W/m 40,7 km/h (6 Bft)
24.08.2014 15:00 19,7 C 18,8 C 58 % 1017,5 hPa 0,0 l/m 0,80 h 0,00 h 2,3 UV-I 537 W/m 36,6 km/h (5 Bft)
24.08.2014 16:00 16,0 C 15,3 C 71 % 1018,1 hPa 0,0 l/m 0,03 h 0,13 h 0,5 UV-I 150 W/m 37,6 km/h (5 Bft)
24.08.2014 17:00 13,8 C 11,9 C 87 % 1018,4 hPa 0,2 l/m 0,00 h 0,67 h 0,0 UV-I 46 W/m 14,6 km/h (3 Bft)
24.08.2014 18:00 13,5 C 11,9 C 90 % 1017,9 hPa 0,0 l/m 0,00 h 0,00 h 0,0 UV-I 59 W/m 0,5 km/h (0 Bft)
24.08.2014 19:00 14,2 C 12,3 C 86 % 1017,7 hPa 0,0 l/m 0,30 h 0,00 h 0,0 UV-I 74 W/m 0,1 km/h (0 Bft)
24.08.2014 20:00 13,2 C 11,4 C 90 % 1018,0 hPa 0,0 l/m 0,00 h 0,00 h 0,0 UV-I 13 W/m 0,3 km/h (0 Bft)
24.08.2014 21:00 12,0 C 10,2 C 92 % 1018,3 hPa 0,0 l/m 0,00 h 0,00 h 0,0 UV-I 0 W/m 2,2 km/h (1 Bft)
24.08.2014 22:00 11,3 C 9,5 C 94 % 1018,4 hPa 0,0 l/m 0,00 h 0,00 h 0,0 UV-I 0 W/m 0,8 km/h (0 Bft)
24.08.2014 23:00 10,8 C 9,5 C 95 % 1018,2 hPa 0,0 l/m 0,00 h 0,00 h 0,0 UV-I 0 W/m 0,9 km/h (0 Bft)
Min-Datum _ 20.08.14 21.08.14 20.08.14 18.08.14 - - - - - 18.08.14
_ Min-Zeit 06:48 03:02 16:02 05:50 - - - - - 22:00
Minimum _ 8,2 C 7,2 C 54 % 1005,0 hPa - - - - - 0,0 km/h (0 Bft)
Max-Datum _ 19.08.14 20.08.14 21.08.14 24.08.14 20.08.14 18.08.14 18.08.14 18.08.14 18.08.14 18.08.14
_ Max-Zeit 21:44 16:24 01:56 11:14 18:24 07:00 00:00 13:12 13:14 11:18
Maximum _ 21,0 C 21,7 C 99 % 1018,6 hPa 6,4 l/m 0,03 h 0,03 h 4,3 UV-I 1025 W/m 88,4 km/h
W (10 Bft)
Durchschnitt _ 13,5 C 12,4 C 85 % 1013,0 hPa #12,6 l/m #41:20 h #9:02 h 1,6 UV-I 252 W/m 22,1 km/h (4 Bft)
© 2014 W. Hausmann